Latest Weather Observations for St Helens

IDT60801

Issued at 8:35 pm EST Friday 25 July 2014 (issued every 30 minutes, with the page automatically refreshed every 10 minutes)

About weather observations | Map of weather stations | Latest weather observations for TAS | Other Formats
Station Details ID: 092120 Name: ST HELENS AERODROME Lat: -41.34 Lon: 148.28 Height: 48.0 m
Data from the previous 72 hours. | See also: Recent months at St Helens
Date/Time
EST
Temp
°C
App
Temp
°C
Dew
Point
Rel
Hum
%
Delta-T
°C
Wind Press
QNH
hPa
Press
MSL
hPa
Rain
since 9 am
mm
Dir
 
Spd
km/h
Gust
km/h
Spd
kts
Gust
kts
25/08:30pm 9.9 8.5 9.4 97 0.2 NW 7 9 4 5 1018.8 - 0.4
25/08:00pm 10.2 8.8 9.7 97 0.3 NNW 7 7 4 4 1018.7 - 0.4
25/07:30pm 10.5 8.8 9.9 96 0.3 NNW 9 11 5 6 1018.6 - 0.4
25/07:00pm 10.4 9.9 9.5 94 0.5 NW 2 6 1 3 1018.4 - 0.4
25/06:30pm 10.6 9.4 9.7 94 0.5 SSW 6 7 3 4 1018.2 - 0.4
25/06:00pm 11.1 9.8 10.0 93 0.6 SSE 7 11 4 6 1018.0 1018.2 0.4
25/05:30pm 11.2 10.1 10.1 93 0.6 S 6 9 3 5 1017.7 - 0.4
25/05:00pm 11.4 10.5 10.5 94 0.5 SSW 6 9 3 5 1017.7 - 0.4
25/04:30pm 11.8 10.9 10.7 93 0.6 SSE 6 9 3 5 1017.4 - 0.4
25/04:00pm 12.1 12.0 10.8 92 0.7 S 2 7 1 4 1017.2 - 0.4
25/03:30pm 12.3 11.8 10.9 91 0.7 S 4 7 2 4 1016.9 - 0.4
25/03:00pm 12.7 11.8 10.8 88 1.0 SSE 6 11 3 6 1017.0 1017.1 0.4
25/02:30pm 12.9 11.5 10.8 87 1.1 S 9 17 5 9 1017.0 - 0.4
25/02:00pm 13.8 13.3 12.0 89 1.0 SSE 6 13 3 7 1016.7 - 0.4
25/01:30pm 12.3 11.9 11.2 93 0.6 S 4 9 2 5 1016.6 - 0.4
25/01:00pm 11.8 11.0 10.9 94 0.5 NNW 6 9 3 5 1016.7 - 0.4
25/12:30pm 12.1 11.2 11.3 95 0.4 NE 7 15 4 8 1016.7 - 0.4
25/12:00pm 12.4 13.0 11.8 96 0.3 CALM 0 0 0 0 1017.2 1017.3 0.2
25/11:30am 10.7 9.4 9.9 95 0.4 NNW 7 13 4 7 1017.6 - 0.2
25/11:00am 11.2 10.3 10.6 96 0.3 NW 6 11 3 6 1017.8 - 0.2
25/10:30am 10.0 9.5 9.5 97 0.2 NNW 2 9 1 5 1018.4 - 0.0
25/10:00am 11.3 10.9 11.0 98 0.2 E 4 11 2 6 1018.1 - 0.0
25/09:30am 8.9 6.9 8.6 98 0.1 NNW 9 11 5 6 1018.2 - 0.0
25/09:00am 8.1 5.9 7.8 98 0.1 NW 9 11 5 6 1018.1 1018.2 0.0
25/08:30am 7.5 5.1 7.2 98 0.1 NW 9 13 5 7 1018.0 - 0.0
25/08:00am 7.7 5.4 7.4 98 0.1 NW 9 11 5 6 1017.7 - 0.0
25/07:30am 7.5 4.8 7.2 98 0.1 NNW 11 13 6 7 1017.4 - 0.0
25/07:00am 7.8 5.1 7.4 97 0.2 NW 11 13 6 7 1017.3 - 0.0
25/06:30am 7.9 5.2 7.5 97 0.2 NNW 11 13 6 7 1017.1 - 0.0
25/06:00am 8.2 5.6 7.9 98 0.1 NNW 11 15 6 8 1017.0 1017.0 0.0
25/05:30am 8.0 6.1 7.6 97 0.2 NW 7 11 4 6 1016.8 - 0.0
25/05:00am 8.1 6.2 7.7 97 0.2 NNW 7 9 4 5 1016.5 - 0.0
25/04:30am 8.0 5.7 7.6 97 0.2 NW 9 11 5 6 1016.5 - 0.0
25/04:00am 7.8 6.1 7.4 97 0.2 NW 6 9 3 5 1016.6 - 0.0
25/03:30am 7.7 5.7 7.3 97 0.2 NW 7 9 4 5 1016.8 - 0.0
25/03:00am 7.6 5.6 7.2 97 0.2 NNW 7 9 4 5 1017.0 1017.1 0.0
25/02:30am 8.1 6.4 7.5 96 0.3 NW 6 7 3 4 1017.2 - 0.0
25/02:00am 8.5 6.7 7.9 96 0.3 NW 7 13 4 7 1017.4 - 0.0
25/01:30am 8.4 6.2 7.8 96 0.3 WNW 9 15 5 8 1017.3 - 0.0
25/01:00am 8.3 6.1 7.7 96 0.3 NNW 9 11 5 6 1017.4 - 0.0
25/12:30am 8.1 6.4 7.5 96 0.3 N 6 9 3 5 1017.4 - 0.0
25/12:00am 8.1 6.2 7.5 96 0.3 NW 7 9 4 5 1017.7 1017.8 0.0
 
Date/Time
EST
Temp
°C
App
Temp
°C
Dew
Point
Rel
Hum
%
Delta-T
°C
Wind Press
QNH
hPa
Press
MSL
hPa
Rain
since 9 am
mm
Dir
 
Spd
km/h
Gust
km/h
Spd
kts
Gust
kts
24/11:30pm 8.2 6.3 7.4 95 0.4 NW 7 9 4 5 1018.0 - 0.0
24/11:00pm 9.2 7.7 8.4 95 0.4 SW 6 9 3 5 1018.1 - 0.0
24/10:30pm 8.3 6.6 7.5 95 0.4 WNW 6 7 3 4 1018.2 - 0.0
24/10:00pm 8.4 7.8 7.5 94 0.4 CALM 0 0 0 0 1018.2 - 0.0
24/09:30pm 8.8 7.9 7.9 94 0.4 SSE 2 7 1 4 1018.4 - 0.0
24/09:00pm 8.6 7.7 7.7 94 0.4 NW 2 6 1 3 1018.6 1018.7 0.0
24/08:30pm 8.6 8.1 7.7 94 0.4 CALM 0 0 0 0 1018.6 - 0.0
24/08:00pm 9.4 9.0 8.3 93 0.5 CALM 0 0 0 0 1018.5 - 0.0
24/07:30pm 9.3 8.6 8.4 94 0.4 SSW 2 6 1 3 1018.5 - 0.0
24/07:00pm 8.8 7.8 7.4 91 0.7 SW 2 9 1 5 1018.5 - 0.0
24/06:30pm 10.5 9.4 8.6 88 0.9 S 4 9 2 5 1018.3 - 0.0
24/06:00pm 10.2 8.5 8.3 88 0.9 S 7 11 4 6 1018.2 1018.3 0.0
24/05:30pm 10.3 8.6 8.4 88 0.9 S 7 11 4 6 1018.2 - 0.0
24/05:00pm 10.5 8.7 8.1 85 1.2 S 7 9 4 5 1018.1 - 0.0
24/04:30pm 11.6 10.1 8.5 81 1.5 S 6 9 3 5 1018.1 - 0.0
24/04:00pm 12.3 11.1 8.2 76 2.0 S 4 9 2 5 1018.2 - 0.0
24/03:30pm 12.6 11.1 8.3 75 2.1 S 6 9 3 5 1018.1 - 0.0
24/03:00pm 12.7 11.6 8.4 75 2.1 SSE 4 9 2 5 1017.9 1018.0 0.0
24/02:30pm 12.6 11.1 8.3 75 2.1 S 6 9 3 5 1017.9 - 0.0
24/02:00pm 12.6 11.5 8.3 75 2.1 SSW 4 9 2 5 1018.1 - 0.0
24/01:30pm 12.9 12.6 8.8 76 2.1 CALM 0 0 0 0 1018.5 - 0.0
24/01:00pm 12.1 11.7 8.4 78 1.8 CALM 0 0 0 0 1018.8 - 0.0
24/12:30pm 11.6 11.1 7.9 78 1.8 CALM 0 0 0 0 1019.1 - 0.0
24/12:00pm 10.5 9.9 7.4 81 1.5 CALM 0 0 0 0 1019.4 1019.5 0.0
24/11:30am 10.8 10.3 7.7 81 1.5 CALM 0 0 0 0 1019.9 - 0.0
24/11:00am 8.8 6.5 5.9 82 1.3 NW 7 9 4 5 1020.4 - 0.0
24/10:30am 7.7 5.4 5.7 87 0.9 NW 7 11 4 6 1020.6 - 0.0
24/10:00am 6.9 4.1 5.2 89 0.8 NW 9 13 5 7 1020.7 - 0.0
24/09:30am 5.6 1.9 4.2 91 0.6 NW 13 17 7 9 1020.6 - 0.0
24/09:00am 4.4 0.5 3.4 93 0.4 NW 13 17 7 9 1020.5 1020.6 0.2
24/08:30am 3.5 -0.9 2.8 95 0.3 NW 15 17 8 9 1020.4 - 0.2
24/08:00am 3.0 -1.0 2.6 97 0.2 NW 13 17 7 9 1020.2 - 0.2
24/07:30am 2.7 -1.4 2.3 97 0.2 NW 13 15 7 8 1020.2 - 0.2
24/07:00am 2.8 -1.7 2.2 96 0.2 NW 15 17 8 9 1020.2 - 0.2
24/06:30am 3.0 -1.1 2.4 96 0.2 NW 13 17 7 9 1020.0 - 0.0
24/06:00am 2.9 -1.2 2.3 96 0.2 NW 13 17 7 9 1020.1 1020.2 0.0
24/05:30am 3.2 -0.5 2.6 96 0.2 NW 11 15 6 8 1020.0 - 0.0
24/05:00am 3.3 -1.1 2.7 96 0.2 NW 15 17 8 9 1020.1 - 0.0
24/04:30am 3.3 -1.5 2.7 96 0.2 NNW 17 19 9 10 1020.2 - 0.0
24/04:00am 3.3 -1.1 2.7 96 0.2 NW 15 19 8 10 1020.2 - 0.0
24/03:30am 3.2 -1.2 2.6 96 0.2 NNW 15 17 8 9 1020.1 - 0.0
24/03:00am 3.3 -1.1 2.7 96 0.2 NW 15 19 8 10 1020.3 1020.4 0.0
24/02:30am 3.2 -0.8 2.6 96 0.2 NNW 13 15 7 8 1020.4 - 0.0
24/02:00am 3.4 -0.6 2.8 96 0.2 NNW 13 15 7 8 1020.5 - 0.0
24/01:30am 3.4 -1.0 2.7 95 0.3 NNW 15 17 8 9 1020.6 - 0.0
24/01:00am 3.7 -0.6 3.0 95 0.3 NNW 15 17 8 9 1020.8 - 0.0
24/12:30am 3.6 -0.7 3.0 96 0.2 NW 15 17 8 9 1021.0 - 0.0
24/12:00am 3.7 -0.6 3.0 95 0.3 NNW 15 17 8 9 1021.3 1021.4 0.0
 
Date/Time
EST
Temp
°C
App
Temp
°C
Dew
Point
Rel
Hum
%
Delta-T
°C
Wind Press
QNH
hPa
Press
MSL
hPa
Rain
since 9 am
mm
Dir
 
Spd
km/h
Gust
km/h
Spd
kts
Gust
kts
23/11:30pm 4.0 0.1 3.4 96 0.2 NNW 13 17 7 9 1021.7 - 0.0
23/11:00pm 4.1 0.6 3.5 96 0.2 NNW 11 15 6 8 1021.9 - 0.0
23/10:30pm 4.3 0.8 3.6 95 0.3 NNW 11 15 6 8 1022.0 - 0.0
23/10:00pm 4.8 1.0 4.1 95 0.3 NNW 13 17 7 9 1022.2 - 0.0
23/09:30pm 4.9 1.6 4.3 96 0.3 NNW 11 13 6 7 1022.3 - 0.0
23/09:00pm 4.8 1.0 4.1 95 0.3 NNW 13 15 7 8 1022.2 1022.3 0.0
23/08:30pm 5.3 2.4 4.4 94 0.4 NNW 9 13 5 7 1022.1 - 0.0
23/08:00pm 5.6 2.3 4.7 94 0.4 NNW 11 13 6 7 1022.1 - 0.0
23/07:30pm 6.3 3.1 5.3 93 0.4 NNW 11 13 6 7 1022.2 - 0.0
23/07:00pm 5.9 4.0 4.9 93 0.4 NW 4 9 2 5 1022.2 - 0.0
23/06:30pm 8.2 7.2 5.8 85 1.1 CALM 0 0 0 0 1021.9 - 0.0
23/06:00pm 7.9 6.9 5.4 84 1.1 CALM 0 0 0 0 1021.8 1021.9 0.0
23/05:30pm 8.8 7.8 5.4 79 1.5 CALM 0 0 0 0 1021.6 - 0.0
23/05:00pm 10.1 7.9 5.5 73 2.1 E 6 7 3 4 1021.4 - 0.0
23/04:30pm 11.1 8.9 5.4 68 2.6 E 6 7 3 4 1021.6 - 0.0
23/04:00pm 12.3 10.0 5.5 63 3.2 ENE 7 9 4 5 1021.7 - 0.0
23/03:30pm 12.4 9.1 4.4 58 3.6 ENE 11 13 6 7 1021.5 - 0.0
23/03:00pm 12.6 9.6 4.1 56 3.8 E 9 15 5 8 1021.5 1021.6 0.0
23/02:30pm 13.3 10.8 4.7 56 4.0 ESE 7 13 4 7 1021.4 - 0.0
23/02:00pm 13.5 11.2 4.9 56 4.0 NW 6 11 3 6 1021.6 - 0.0
23/01:30pm 13.9 11.4 4.5 53 4.3 N 7 9 4 5 1021.8 - 0.0
23/01:00pm 13.2 10.6 4.1 54 4.1 N 7 9 4 5 1022.3 - 0.0
23/12:30pm 13.1 10.2 4.5 56 3.9 NNW 9 9 5 5 1022.7 - 0.0
23/12:00pm 13.3 10.9 4.5 55 4.0 NNW 6 9 3 5 1023.2 1023.4 0.0
23/11:30am 12.5 10.7 5.2 61 3.4 NNW 4 7 2 4 1023.9 - 0.0
23/11:00am 10.7 8.9 5.3 69 2.5 NW 4 7 2 4 1024.2 - 0.0
23/10:30am 9.4 6.9 4.8 73 2.1 NW 7 9 4 5 1024.5 - 0.0
23/10:00am 7.4 4.5 4.5 82 1.3 NW 9 11 5 6 1024.4 - 0.0
23/09:30am 5.8 2.4 3.8 87 0.8 NW 11 15 6 8 1024.5 - 0.0
23/09:00am 4.4 0.8 2.9 90 0.6 NW 11 13 6 7 1024.4 1024.5 0.2
23/08:30am 3.6 -0.1 2.6 93 0.4 NNW 11 15 6 8 1024.3 - 0.2
23/08:00am 2.6 -1.6 1.7 94 0.3 NW 13 17 7 9 1024.3 - 0.2
23/07:30am 2.5 -1.7 1.8 95 0.3 NNW 13 17 7 9 1024.2 - 0.2
23/07:00am 2.5 -1.3 1.8 95 0.3 NW 11 17 6 9 1023.9 - 0.2
23/06:30am 2.4 -1.8 1.7 95 0.3 NW 13 17 7 9 1023.8 - 0.2
23/06:00am 2.6 -1.6 1.7 94 0.3 NNW 13 17 7 9 1023.7 1023.8 0.2
23/05:30am 2.8 -1.4 1.9 94 0.4 NNW 13 17 7 9 1023.8 - 0.2
23/05:00am 2.8 -1.0 1.9 94 0.4 NW 11 13 6 7 1024.1 - 0.2
23/04:30am 3.0 -0.3 2.3 95 0.3 NNW 9 15 5 8 1024.2 - 0.2
23/04:00am 2.7 -0.7 1.8 94 0.4 NW 9 13 5 7 1024.2 - 0.2
23/03:30am 3.0 -1.1 2.1 94 0.4 NW 13 15 7 8 1024.1 - 0.2
23/03:00am 2.9 -0.9 2.0 94 0.4 NW 11 15 6 8 1024.2 1024.3 0.0
23/02:30am 3.5 -0.5 2.6 94 0.4 NW 13 17 7 9 1024.2 - 0.0
23/02:00am 3.4 -0.3 2.5 94 0.4 NW 11 15 6 8 1024.2 - 0.0
23/01:30am 3.5 -0.5 2.6 94 0.4 NW 13 15 7 8 1024.2 - 0.0
23/01:00am 3.7 0.1 2.8 94 0.4 NW 11 15 6 8 1024.2 - 0.0
23/12:30am 3.7 0.1 2.8 94 0.4 NW 11 15 6 8 1024.5 - 0.0
23/12:00am 3.7 0.5 3.0 95 0.3 NW 9 13 5 7 1024.5 1024.6 0.0
 
Date/Time
EST
Temp
°C
App
Temp
°C
Dew
Point
Rel
Hum
%
Delta-T
°C
Wind Press
QNH
hPa
Press
MSL
hPa
Rain
since 9 am
mm
Dir
 
Spd
km/h
Gust
km/h
Spd
kts
Gust
kts
22/11:30pm 4.0 -0.3 3.3 95 0.3 NW 15 17 8 9 1024.7 - 0.0
22/11:00pm 4.4 0.5 3.5 94 0.4 NW 13 17 7 9 1024.7 - 0.0
22/10:30pm 5.1 1.4 4.4 95 0.3 NW 13 15 7 8 1024.7 - 0.0
22/10:00pm 5.3 1.6 4.4 94 0.4 NW 13 17 7 9 1024.8 - 0.0
22/09:30pm 5.5 2.2 4.6 94 0.4 NNW 11 15 6 8 1024.9 - 0.0
22/09:00pm 5.6 2.0 4.9 95 0.3 NNW 13 17 7 9 1025.0 1025.1 0.0

Other Formats:

Comma delimited format used in spreadsheet applications
http://www.bom.gov.au/fwo/IDT60801/IDT60801.95981.axf

JavaScript Object Notation format (JSON) in row-major order
http://www.bom.gov.au/fwo/IDT60801/IDT60801.95981.json